Valley Springs, Arkansas
Current Conditions -  °F | °C
As of 2:53 AM on Sunday 23 Nov 2014 (Local Time) from KHRO Reporting Station
Overcast Overcast  
Wind Chill: 57°   Ceiling: 1500
Heat Index: 57°   Visibility: 10mi
Dew Point: 53°   Wind: 17mph
Humidity: 87%   Direction: 160°SSE
Pressure: 29.68"   Gusts: NA
Location:  36.16°N, 92.99°W
Report Text: KHRO 230853Z AUTO 16015KT 10SM OVC015 14/12 A2968 RMK AO2 SLP048 T01390117 56034
Loading
Personal Weather Stations






























Interactive Weather Map New forecast layout! Learn more

10-Day Weather Forecast

Advertisements
Track Severe Weather on mobile